createdAt,value
2019-01-30T00:01:15.369Z,92.20
2019-01-30T00:04:02.575Z,92.30
2019-01-30T00:06:50.501Z,92.10
2019-01-30T00:09:42.457Z,92.20
2019-01-30T00:12:30.540Z,92.20
2019-01-30T00:15:19.122Z,91.90
2019-01-30T00:18:07.633Z,91.80
2019-01-30T00:20:56.052Z,91.60
2019-01-30T00:23:44.685Z,91.50
2019-01-30T00:26:32.610Z,91.90
2019-01-30T00:29:22.450Z,92.00
2019-01-30T00:32:10.579Z,91.90
2019-01-30T00:34:59.254Z,91.80
2019-01-30T00:37:47.425Z,91.80
2019-01-30T00:40:39.584Z,91.50
2019-01-30T00:43:27.654Z,91.30
2019-01-30T00:46:15.869Z,91.20
2019-01-30T00:49:03.648Z,91.20
2019-01-30T00:51:51.512Z,91.30
2019-01-30T00:54:39.417Z,91.30
2019-01-30T00:57:27.209Z,91.40
2019-01-30T01:00:19.413Z,91.00
2019-01-30T01:03:07.661Z,91.00
2019-01-30T01:05:56.845Z,91.00
2019-01-30T01:09:07.449Z,90.90
2019-01-30T01:11:55.606Z,90.90
2019-01-30T01:14:43.389Z,90.90
2019-01-30T01:17:31.662Z,90.90
2019-01-30T01:20:19.892Z,90.90
2019-01-30T01:23:07.561Z,90.70
2019-01-30T01:25:55.480Z,90.80
2019-01-30T01:28:43.264Z,90.70
2019-01-30T01:31:31.336Z,90.70
2019-01-30T01:34:19.389Z,90.70
2019-01-30T01:37:06.979Z,90.60
2019-01-30T01:39:54.782Z,90.60
2019-01-30T01:43:09.740Z,90.40
2019-01-30T01:45:54.864Z,90.30
2019-01-30T01:48:42.561Z,90.30
2019-01-30T01:51:30.479Z,90.50
2019-01-30T01:54:18.233Z,90.40
2019-01-30T01:57:05.844Z,90.40
2019-01-30T01:59:53.819Z,90.20
2019-01-30T02:02:41.863Z,90.20
2019-01-30T02:05:30.483Z,90.20
2019-01-30T02:08:18.978Z,90.20
2019-01-30T02:11:07.626Z,90.20
2019-01-30T02:13:55.637Z,90.20
2019-01-30T02:16:43.832Z,90.30
2019-01-30T02:19:35.160Z,90.40
2019-01-30T02:22:23.538Z,90.80
2019-01-30T02:25:12.211Z,90.80
2019-01-30T02:28:00.692Z,90.80
2019-01-30T02:30:51.941Z,90.70
2019-01-30T02:33:49.585Z,90.70
2019-01-30T02:36:56.160Z,90.60
2019-01-30T02:39:44.081Z,90.50
2019-01-30T02:42:32.565Z,90.60
2019-01-30T02:45:22.855Z,90.30
2019-01-30T02:48:11.763Z,90.20
2019-01-30T02:50:59.478Z,90.10
2019-01-30T02:53:48.184Z,90.50
2019-01-30T02:56:36.195Z,89.60
2019-01-30T02:59:23.993Z,88.80
2019-01-30T03:02:24.768Z,87.50
2019-01-30T03:05:12.968Z,86.90
2019-01-30T03:08:01.190Z,85.70
2019-01-30T03:10:49.109Z,84.80
2019-01-30T03:13:36.905Z,84.20
2019-01-30T03:16:25.090Z,83.70
2019-01-30T03:19:13.326Z,83.60
2019-01-30T03:22:04.383Z,84.10
2019-01-30T03:24:52.534Z,84.10
2019-01-30T03:27:40.297Z,85.30
2019-01-30T03:30:29.957Z,85.10
2019-01-30T03:33:21.085Z,85.60
2019-01-30T03:36:09.133Z,83.40
2019-01-30T03:38:57.461Z,81.60
2019-01-30T03:41:50.306Z,80.10
2019-01-30T03:44:39.316Z,74.60
2019-01-30T03:47:27.009Z,73.00
2019-01-30T03:50:15.091Z,72.40
2019-01-30T03:53:03.396Z,69.50
2019-01-30T03:55:51.025Z,69.90
2019-01-30T03:58:38.670Z,69.30
2019-01-30T04:01:27.117Z,66.90
2019-01-30T04:04:14.872Z,67.10
2019-01-30T04:07:02.644Z,65.10
2019-01-30T04:09:50.560Z,65.70
2019-01-30T04:12:38.442Z,67.70
2019-01-30T04:15:26.425Z,68.40
2019-01-30T04:18:13.970Z,67.30
2019-01-30T04:21:02.319Z,67.70
2019-01-30T04:23:50.514Z,68.80
2019-01-30T04:26:38.808Z,65.90
2019-01-30T04:29:26.795Z,68.20
2019-01-30T04:32:14.628Z,65.60
2019-01-30T04:35:02.388Z,66.20
2019-01-30T04:37:50.290Z,66.50
2019-01-30T04:40:38.032Z,66.00
2019-01-30T04:43:25.912Z,66.00
2019-01-30T04:46:14.210Z,64.70
2019-01-30T04:49:01.986Z,64.40
2019-01-30T04:51:49.741Z,64.90
2019-01-30T04:54:41.263Z,63.40
2019-01-30T04:57:28.979Z,63.50
2019-01-30T05:02:50.375Z,65.70
2019-01-30T05:05:38.258Z,63.20
2019-01-30T05:08:26.578Z,63.60
2019-01-30T05:11:14.879Z,64.80
2019-01-30T05:14:03.387Z,63.00
2019-01-30T05:16:51.359Z,65.00
2019-01-30T05:19:39.681Z,64.60
2019-01-30T05:22:27.898Z,64.20
2019-01-30T05:25:16.662Z,64.80
2019-01-30T05:28:04.262Z,65.70
2019-01-30T05:30:52.219Z,66.40
2019-01-30T05:33:40.035Z,66.70
2019-01-30T05:36:27.733Z,65.50
2019-01-30T05:39:16.215Z,66.90
2019-01-30T05:42:04.370Z,67.50
2019-01-30T05:44:52.396Z,68.20
2019-01-30T05:47:40.393Z,64.80
2019-01-30T05:50:27.939Z,66.60
2019-01-30T05:53:15.589Z,67.00
2019-01-30T05:56:03.841Z,65.50
2019-01-30T05:58:51.879Z,65.40
2019-01-30T06:01:40.211Z,64.90
2019-01-30T06:04:27.959Z,62.70
2019-01-30T06:07:15.681Z,62.80
2019-01-30T06:10:03.381Z,61.00
2019-01-30T06:12:50.872Z,60.90
2019-01-30T06:15:38.845Z,62.50
2019-01-30T06:18:26.906Z,61.10
2019-01-30T06:21:14.548Z,62.20
2019-01-30T06:24:02.495Z,64.80
2019-01-30T06:26:50.606Z,65.00
2019-01-30T06:29:38.402Z,65.50
2019-01-30T06:32:26.612Z,66.30
2019-01-30T06:35:14.937Z,66.50
2019-01-30T06:38:02.764Z,66.80
2019-01-30T06:40:50.952Z,69.20
2019-01-30T06:43:38.792Z,67.70
2019-01-30T06:46:26.335Z,67.30
2019-01-30T06:49:13.674Z,68.50
2019-01-30T06:52:01.652Z,68.90
2019-01-30T06:54:49.628Z,70.20
2019-01-30T06:57:37.299Z,72.00
2019-01-30T07:00:26.500Z,73.80
2019-01-30T07:03:14.059Z,74.80
2019-01-30T07:06:02.507Z,75.00
2019-01-30T07:08:49.891Z,76.00
2019-01-30T07:11:37.869Z,76.50
2019-01-30T07:14:25.710Z,75.60
2019-01-30T07:17:13.725Z,76.40
2019-01-30T07:20:01.321Z,77.20
2019-01-30T07:22:49.137Z,76.50
2019-01-30T07:25:37.087Z,76.70
2019-01-30T07:28:24.513Z,76.30
2019-01-30T07:31:12.255Z,77.00
2019-01-30T07:33:59.877Z,77.60
2019-01-30T07:36:47.580Z,77.70
2019-01-30T07:39:35.281Z,78.30
2019-01-30T07:42:22.983Z,78.40
2019-01-30T07:45:12.172Z,78.60
2019-01-30T07:47:59.749Z,78.10
2019-01-30T07:50:47.406Z,77.60
2019-01-30T07:53:35.012Z,77.60
2019-01-30T07:56:22.806Z,77.80
2019-01-30T07:59:10.798Z,78.20
2019-01-30T08:01:58.741Z,77.90
2019-01-30T08:04:46.363Z,78.20
2019-01-30T08:07:33.976Z,78.10
2019-01-30T08:10:22.115Z,77.90
2019-01-30T08:13:09.487Z,77.40
2019-01-30T08:15:56.893Z,76.80
2019-01-30T08:18:44.833Z,77.10
2019-01-30T08:21:32.474Z,77.60
2019-01-30T08:24:20.403Z,78.20
2019-01-30T08:27:08.541Z,78.30
2019-01-30T08:29:56.900Z,78.70
2019-01-30T08:32:44.833Z,78.60
2019-01-30T08:35:34.209Z,77.60
2019-01-30T08:38:22.506Z,77.80
2019-01-30T08:41:10.056Z,78.00
2019-01-30T08:43:58.169Z,78.40
2019-01-30T08:46:46.009Z,77.50
2019-01-30T08:49:33.461Z,77.20
2019-01-30T08:52:21.555Z,78.30
2019-01-30T08:55:09.454Z,77.90
2019-01-30T08:57:56.937Z,77.30
2019-01-30T09:00:44.982Z,77.10
2019-01-30T09:03:32.761Z,77.00
2019-01-30T09:06:20.441Z,78.50
2019-01-30T09:09:10.090Z,77.70
2019-01-30T09:11:57.868Z,78.00
2019-01-30T09:14:45.879Z,77.20
2019-01-30T09:17:33.521Z,77.90
2019-01-30T09:20:22.411Z,73.60
2019-01-30T09:23:10.253Z,75.40
2019-01-30T09:25:58.008Z,73.40
2019-01-30T09:28:45.540Z,72.30
2019-01-30T09:31:33.560Z,71.10
2019-01-30T09:34:21.405Z,75.30
2019-01-30T09:37:09.241Z,75.10
2019-01-30T09:39:56.913Z,73.30
2019-01-30T09:42:45.754Z,73.50
2019-01-30T09:45:33.629Z,74.80
2019-01-30T09:48:21.647Z,73.60
2019-01-30T09:51:09.173Z,72.50
2019-01-30T09:53:57.655Z,71.70
2019-01-30T09:56:45.300Z,70.90
2019-01-30T09:59:33.137Z,71.50
2019-01-30T10:02:21.014Z,72.30
2019-01-30T10:05:09.558Z,72.20
2019-01-30T10:07:57.446Z,72.30
2019-01-30T10:10:45.202Z,72.20
2019-01-30T10:13:32.647Z,73.00
2019-01-30T10:16:20.619Z,72.00
2019-01-30T10:19:08.389Z,70.60
2019-01-30T10:21:56.275Z,71.60
2019-01-30T10:24:43.783Z,71.30
2019-01-30T10:27:32.002Z,70.20
2019-01-30T10:30:24.098Z,67.20
2019-01-30T10:33:12.035Z,67.00
2019-01-30T10:36:00.186Z,65.60
2019-01-30T10:38:47.508Z,64.20
2019-01-30T10:41:35.107Z,64.40
2019-01-30T10:44:22.696Z,63.30
2019-01-30T10:47:10.210Z,63.30
2019-01-30T10:49:57.740Z,63.80
2019-01-30T10:52:45.975Z,64.10
2019-01-30T10:55:33.757Z,65.10
2019-01-30T10:58:21.824Z,65.30
2019-01-30T11:01:09.835Z,65.50
2019-01-30T11:03:57.717Z,65.30
2019-01-30T11:06:45.696Z,65.40
2019-01-30T11:09:33.673Z,63.90
2019-01-30T11:12:21.204Z,63.90
2019-01-30T11:15:11.024Z,64.10
2019-01-30T11:17:58.761Z,62.60
2019-01-30T11:20:46.501Z,62.50
2019-01-30T11:23:34.114Z,63.90
2019-01-30T11:26:21.796Z,64.90
2019-01-30T11:29:09.780Z,63.30
2019-01-30T11:31:57.518Z,64.20
2019-01-30T11:34:45.249Z,61.10
2019-01-30T11:37:33.253Z,62.20
2019-01-30T11:40:21.896Z,60.30
2019-01-30T11:43:10.275Z,59.50
2019-01-30T11:45:57.648Z,62.30
2019-01-30T11:48:45.508Z,61.10
2019-01-30T11:51:33.520Z,60.60
2019-01-30T11:54:21.328Z,60.30
2019-01-30T11:57:09.205Z,60.40
2019-01-30T11:59:56.595Z,60.40
2019-01-30T12:02:47.936Z,60.50
2019-01-30T12:05:33.866Z,61.90
2019-01-30T12:08:21.487Z,61.50
2019-01-30T12:11:09.102Z,62.20
2019-01-30T12:13:56.972Z,60.20
2019-01-30T12:16:44.653Z,60.80
2019-01-30T12:19:32.515Z,60.00
2019-01-30T12:22:20.519Z,58.70
2019-01-30T12:25:08.865Z,59.10
2019-01-30T12:27:56.511Z,61.30
2019-01-30T12:30:44.217Z,59.50
2019-01-30T12:33:31.740Z,59.90
2019-01-30T12:36:19.864Z,60.40
2019-01-30T12:39:09.876Z,59.20
2019-01-30T12:41:57.663Z,60.10
2019-01-30T12:44:45.277Z,60.00
2019-01-30T12:47:33.121Z,61.60
2019-01-30T12:50:21.373Z,61.70
2019-01-30T12:53:09.039Z,61.80
2019-01-30T12:55:56.717Z,60.40
2019-01-30T12:58:44.653Z,59.40
2019-01-30T13:01:32.638Z,60.00
2019-01-30T13:04:20.300Z,60.80
2019-01-30T13:07:07.970Z,61.20
2019-01-30T13:09:55.347Z,59.50
2019-01-30T13:12:42.908Z,60.70
2019-01-30T13:15:31.365Z,61.80
2019-01-30T13:18:19.123Z,61.90
2019-01-30T13:21:07.488Z,63.20
2019-01-30T13:23:55.768Z,62.40
2019-01-30T13:26:43.177Z,63.40
2019-01-30T13:29:30.584Z,60.70
2019-01-30T13:32:18.455Z,61.60
2019-01-30T13:35:06.724Z,61.90
2019-01-30T13:37:54.280Z,61.10
2019-01-30T13:40:42.405Z,61.60
2019-01-30T13:43:30.028Z,62.50
2019-01-30T13:46:17.637Z,61.50
2019-01-30T13:49:05.068Z,62.70
2019-01-30T13:51:52.863Z,62.30
2019-01-30T13:54:40.657Z,61.80
2019-01-30T13:57:28.489Z,64.00
2019-01-30T14:00:22.336Z,62.70
2019-01-30T14:03:09.948Z,64.00
2019-01-30T14:05:57.645Z,65.20
2019-01-30T14:08:45.797Z,64.50
2019-01-30T14:11:33.790Z,64.00
2019-01-30T14:14:21.683Z,62.80
2019-01-30T14:17:09.584Z,64.50
2019-01-30T14:19:57.092Z,65.10
2019-01-30T14:22:45.309Z,64.70
2019-01-30T14:25:33.495Z,62.90
2019-01-30T14:28:21.660Z,62.90
2019-01-30T14:31:09.491Z,63.40
2019-01-30T14:33:57.281Z,64.80
2019-01-30T14:36:45.151Z,64.10
2019-01-30T14:39:33.192Z,61.80
2019-01-30T14:42:21.246Z,62.80
2019-01-30T14:45:10.738Z,62.20
2019-01-30T14:47:58.006Z,63.70
2019-01-30T14:50:45.565Z,64.50
2019-01-30T14:53:33.785Z,63.90
2019-01-30T14:56:21.735Z,64.70
2019-01-30T14:59:09.023Z,65.10
2019-01-30T15:01:56.602Z,64.80
2019-01-30T15:04:44.402Z,64.50
2019-01-30T15:07:32.429Z,64.80
2019-01-30T15:10:20.525Z,66.00
2019-01-30T15:13:08.470Z,66.40
2019-01-30T15:15:56.630Z,67.30
2019-01-30T15:18:44.593Z,67.70
2019-01-30T15:21:32.449Z,68.10
2019-01-30T15:24:20.205Z,67.80
2019-01-30T15:27:07.896Z,68.20
2019-01-30T15:29:55.689Z,68.50
2019-01-30T15:32:43.349Z,69.80
2019-01-30T15:35:33.722Z,69.40
2019-01-30T15:38:20.762Z,70.20
2019-01-30T15:41:08.701Z,70.50
2019-01-30T15:43:56.276Z,71.90
2019-01-30T15:46:44.599Z,71.60
2019-01-30T15:49:32.416Z,72.70
2019-01-30T15:52:20.006Z,72.90
2019-01-30T15:55:08.352Z,73.10
2019-01-30T15:57:58.938Z,73.80
2019-01-30T16:00:53.118Z,74.10
2019-01-30T16:03:40.814Z,75.00
2019-01-30T16:06:28.563Z,74.30
2019-01-30T16:09:16.181Z,74.70
2019-01-30T16:12:03.672Z,74.10
2019-01-30T16:14:51.552Z,74.50
2019-01-30T16:17:39.655Z,75.10
2019-01-30T16:20:27.382Z,75.00
2019-01-30T16:23:15.074Z,75.70
2019-01-30T16:26:02.746Z,75.20
2019-01-30T16:28:50.920Z,75.80
2019-01-30T16:31:38.776Z,75.60
2019-01-30T16:34:26.253Z,76.10
2019-01-30T16:37:13.807Z,75.60
2019-01-30T16:40:01.568Z,75.90
2019-01-30T16:42:49.411Z,76.10
2019-01-30T16:45:37.394Z,76.00
2019-01-30T16:48:25.131Z,75.60
2019-01-30T16:51:12.767Z,75.70
2019-01-30T16:54:00.721Z,76.20
2019-01-30T16:56:48.391Z,76.80
2019-01-30T16:59:35.808Z,76.40
2019-01-30T17:02:23.421Z,74.40
2019-01-30T17:05:12.709Z,75.10
2019-01-30T17:08:00.322Z,75.30
2019-01-30T17:10:47.954Z,75.30
2019-01-30T17:13:35.799Z,76.20
2019-01-30T17:16:23.195Z,76.20
2019-01-30T17:19:11.018Z,76.40
2019-01-30T17:21:58.633Z,76.30
2019-01-30T17:24:46.000Z,76.60
2019-01-30T17:27:33.377Z,76.90
2019-01-30T17:30:24.546Z,76.90
2019-01-30T17:33:12.856Z,77.40
2019-01-30T17:36:01.100Z,77.00
2019-01-30T17:38:48.448Z,77.40
2019-01-30T17:41:36.042Z,77.40
2019-01-30T17:44:23.602Z,77.90
2019-01-30T17:47:11.494Z,78.20
2019-01-30T17:49:59.056Z,78.30
2019-01-30T17:52:46.762Z,78.40
2019-01-30T17:55:34.558Z,78.60
2019-01-30T17:58:22.005Z,78.60
2019-01-30T18:01:10.028Z,78.70
2019-01-30T18:03:58.516Z,78.40
2019-01-30T18:06:46.153Z,79.00
2019-01-30T18:09:33.860Z,78.80
2019-01-30T18:12:21.324Z,79.10
2019-01-30T18:15:09.493Z,78.20
2019-01-30T18:17:57.809Z,78.80
2019-01-30T18:20:45.487Z,78.80
2019-01-30T18:23:33.423Z,78.60
2019-01-30T18:26:21.154Z,78.70
2019-01-30T18:29:09.296Z,78.80
2019-01-30T18:31:57.241Z,79.30
2019-01-30T18:34:45.204Z,78.30
2019-01-30T18:37:32.855Z,77.40
2019-01-30T18:40:21.961Z,77.10
2019-01-30T18:43:10.751Z,77.30
2019-01-30T18:45:58.374Z,77.90
2019-01-30T18:48:46.175Z,77.00
2019-01-30T18:51:33.727Z,76.30
2019-01-30T18:54:21.478Z,76.20
2019-01-30T18:57:09.433Z,75.50
2019-01-30T18:59:57.096Z,75.90
2019-01-30T19:02:44.762Z,75.60
2019-01-30T19:05:32.876Z,75.90
2019-01-30T19:08:21.296Z,75.70
2019-01-30T19:11:09.140Z,75.80
2019-01-30T19:13:57.377Z,75.80
2019-01-30T19:16:45.053Z,75.90
2019-01-30T19:19:33.143Z,75.30
2019-01-30T19:22:21.079Z,74.40
2019-01-30T19:25:09.266Z,74.40
2019-01-30T19:27:57.254Z,74.70
2019-01-30T19:30:45.344Z,75.10
2019-01-30T19:33:33.307Z,74.20
2019-01-30T19:36:20.993Z,74.80
2019-01-30T19:39:09.712Z,75.00
2019-01-30T19:41:57.354Z,74.90
2019-01-30T19:44:44.858Z,75.50
2019-01-30T19:47:32.830Z,74.30
2019-01-30T19:50:22.128Z,74.60
2019-01-30T19:53:10.169Z,75.30
2019-01-30T19:55:57.785Z,75.50
2019-01-30T19:58:46.062Z,75.10
2019-01-30T20:01:36.229Z,75.20
2019-01-30T20:04:23.336Z,75.40
2019-01-30T20:07:14.744Z,75.60
2019-01-30T20:10:00.304Z,75.60
2019-01-30T20:12:48.087Z,76.00
2019-01-30T20:15:36.140Z,76.10
2019-01-30T20:18:23.676Z,75.70
2019-01-30T20:21:11.707Z,77.10
2019-01-30T20:23:59.849Z,74.40
2019-01-30T20:26:47.297Z,74.80
2019-01-30T20:29:35.103Z,74.70
2019-01-30T20:32:22.525Z,75.00
2019-01-30T20:35:11.943Z,75.10
2019-01-30T20:37:59.395Z,75.00
2019-01-30T20:40:47.160Z,75.10
2019-01-30T20:43:34.844Z,74.50
2019-01-30T20:46:22.530Z,74.60
2019-01-30T20:49:10.019Z,74.50
2019-01-30T20:51:57.358Z,74.90
2019-01-30T20:54:45.090Z,74.50
2019-01-30T20:57:32.689Z,74.70
2019-01-30T21:00:22.854Z,75.00
2019-01-30T21:03:10.798Z,75.20
2019-01-30T21:05:58.589Z,75.40
2019-01-30T21:08:46.318Z,77.00
2019-01-30T21:11:34.417Z,77.60
2019-01-30T21:14:22.257Z,78.10
2019-01-30T21:17:10.001Z,78.60
2019-01-30T21:19:57.926Z,77.10
2019-01-30T21:22:45.774Z,75.00
2019-01-30T21:25:33.821Z,76.30
2019-01-30T21:28:21.421Z,77.20
2019-01-30T21:31:09.384Z,76.10
2019-01-30T21:33:57.201Z,76.40
2019-01-30T21:36:44.686Z,78.40
2019-01-30T21:39:32.757Z,78.50
2019-01-30T21:42:20.308Z,78.30
2019-01-30T21:45:10.062Z,78.50
2019-01-30T21:47:58.311Z,78.50
2019-01-30T21:50:45.946Z,78.80
2019-01-30T21:53:33.737Z,79.20
2019-01-30T21:56:21.387Z,79.40
2019-01-30T21:59:09.334Z,79.60
2019-01-30T22:02:07.765Z,80.50
2019-01-30T22:04:46.064Z,80.70
2019-01-30T22:07:33.272Z,80.90
2019-01-30T22:10:23.197Z,80.70
2019-01-30T22:13:10.795Z,81.70
2019-01-30T22:15:58.814Z,81.40
2019-01-30T22:18:46.360Z,81.30
2019-01-30T22:21:34.189Z,81.30
2019-01-30T22:24:22.157Z,81.60
2019-01-30T22:27:09.619Z,82.00
2019-01-30T22:29:57.600Z,82.40
2019-01-30T22:32:45.963Z,82.50
2019-01-30T22:35:34.285Z,81.90
2019-01-30T22:38:22.561Z,81.80
2019-01-30T22:41:10.360Z,82.20
2019-01-30T22:43:58.399Z,82.30
2019-01-30T22:46:46.232Z,82.60
2019-01-30T22:49:34.184Z,82.70
2019-01-30T22:52:22.087Z,83.10
2019-01-30T22:55:11.635Z,83.10
2019-01-30T22:57:59.092Z,83.30
2019-01-30T23:01:13.793Z,83.20
2019-01-30T23:04:38.571Z,83.00
2019-01-30T23:07:48.646Z,83.00
2019-01-30T23:11:36.042Z,82.80
2019-01-30T23:14:32.120Z,83.20
2019-01-30T23:17:47.418Z,83.90
2019-01-30T23:20:52.215Z,83.90
2019-01-30T23:24:08.294Z,84.50
2019-01-30T23:27:15.645Z,84.30
2019-01-30T23:30:26.392Z,84.40
2019-01-30T23:33:46.622Z,84.70
2019-01-30T23:37:16.153Z,85.00
2019-01-30T23:40:28.985Z,84.90
2019-01-30T23:43:48.098Z,85.30
2019-01-30T23:47:26.581Z,85.40
2019-01-30T23:50:32.685Z,85.60
2019-01-30T23:54:06.593Z,85.80
2019-01-30T23:57:34.118Z,86.30
